sensor_id;sensor_type;location;lat;lon;timestamp;temperature;humidity
22714;DHT22;11524;50.846;4.326;2023-01-08T00:02:14;18.20;73.90
22714;DHT22;11524;50.846;4.326;2023-01-08T00:04:40;18.10;73.40
22714;DHT22;11524;50.846;4.326;2023-01-08T00:07:05;18.20;73.50
22714;DHT22;11524;50.846;4.326;2023-01-08T00:09:31;18.20;74.90
22714;DHT22;11524;50.846;4.326;2023-01-08T00:11:56;18.20;76.20
22714;DHT22;11524;50.846;4.326;2023-01-08T00:14:22;18.20;75.50
22714;DHT22;11524;50.846;4.326;2023-01-08T00:16:47;18.20;75.70
22714;DHT22;11524;50.846;4.326;2023-01-08T00:19:13;18.30;74.40
22714;DHT22;11524;50.846;4.326;2023-01-08T00:21:39;18.20;73.20
22714;DHT22;11524;50.846;4.326;2023-01-08T00:24:04;18.20;73.20
22714;DHT22;11524;50.846;4.326;2023-01-08T00:26:30;18.20;73.20
22714;DHT22;11524;50.846;4.326;2023-01-08T00:28:56;18.20;73.80
22714;DHT22;11524;50.846;4.326;2023-01-08T00:31:22;18.30;73.40
22714;DHT22;11524;50.846;4.326;2023-01-08T00:33:47;18.20;73.30
22714;DHT22;11524;50.846;4.326;2023-01-08T00:36:15;18.20;74.50
22714;DHT22;11524;50.846;4.326;2023-01-08T00:38:42;18.20;73.70
22714;DHT22;11524;50.846;4.326;2023-01-08T00:41:08;18.20;73.70
22714;DHT22;11524;50.846;4.326;2023-01-08T00:43:34;18.20;73.80
22714;DHT22;11524;50.846;4.326;2023-01-08T00:45:59;18.10;73.20
22714;DHT22;11524;50.846;4.326;2023-01-08T00:48:25;18.20;73.70
22714;DHT22;11524;50.846;4.326;2023-01-08T00:50:52;18.10;73.60
22714;DHT22;11524;50.846;4.326;2023-01-08T00:53:19;18.20;74.90
22714;DHT22;11524;50.846;4.326;2023-01-08T00:55:44;18.20;74.90
22714;DHT22;11524;50.846;4.326;2023-01-08T00:58:11;18.20;74.80
22714;DHT22;11524;50.846;4.326;2023-01-08T01:00:36;18.20;74.10
22714;DHT22;11524;50.846;4.326;2023-01-08T01:03:02;18.20;74.90
22714;DHT22;11524;50.846;4.326;2023-01-08T01:05:28;18.10;73.90
22714;DHT22;11524;50.846;4.326;2023-01-08T01:07:53;18.20;74.50
22714;DHT22;11524;50.846;4.326;2023-01-08T01:10:19;18.20;74.80
22714;DHT22;11524;50.846;4.326;2023-01-08T01:12:44;18.20;74.90
22714;DHT22;11524;50.846;4.326;2023-01-08T01:15:13;18.20;75.40
22714;DHT22;11524;50.846;4.326;2023-01-08T01:17:40;18.10;74.60
22714;DHT22;11524;50.846;4.326;2023-01-08T01:20:08;18.10;75.00
22714;DHT22;11524;50.846;4.326;2023-01-08T01:22:34;18.10;74.00
22714;DHT22;11524;50.846;4.326;2023-01-08T01:24:59;18.10;75.10
22714;DHT22;11524;50.846;4.326;2023-01-08T01:27:25;18.10;75.10
22714;DHT22;11524;50.846;4.326;2023-01-08T01:29:51;18.10;75.10
22714;DHT22;11524;50.846;4.326;2023-01-08T01:32:17;18.20;75.50
22714;DHT22;11524;50.846;4.326;2023-01-08T01:34:43;18.10;75.60
22714;DHT22;11524;50.846;4.326;2023-01-08T01:37:12;18.10;76.00
22714;DHT22;11524;50.846;4.326;2023-01-08T01:39:38;18.10;76.10
22714;DHT22;11524;50.846;4.326;2023-01-08T01:42:04;18.10;76.30
22714;DHT22;11524;50.846;4.326;2023-01-08T01:44:45;18.10;76.00
22714;DHT22;11524;50.846;4.326;2023-01-08T01:47:40;18.10;75.60
22714;DHT22;11524;50.846;4.326;2023-01-08T01:52:49;18.10;76.10
22714;DHT22;11524;50.846;4.326;2023-01-08T01:55:16;18.10;76.00
22714;DHT22;11524;50.846;4.326;2023-01-08T01:57:49;18.10;76.70
22714;DHT22;11524;50.846;4.326;2023-01-08T02:00:17;18.10;76.20
22714;DHT22;11524;50.846;4.326;2023-01-08T02:02:43;18.10;73.70
22714;DHT22;11524;50.846;4.326;2023-01-08T02:05:09;18.00;69.30
22714;DHT22;11524;50.846;4.326;2023-01-08T02:07:51;18.00;69.90
22714;DHT22;11524;50.846;4.326;2023-01-08T02:10:34;18.00;68.70
22714;DHT22;11524;50.846;4.326;2023-01-08T02:13:09;18.00;69.20
22714;DHT22;11524;50.846;4.326;2023-01-08T02:16:00;17.90;69.00
22714;DHT22;11524;50.846;4.326;2023-01-08T02:18:40;17.90;69.30
22714;DHT22;11524;50.846;4.326;2023-01-08T02:21:20;18.00;68.90
22714;DHT22;11524;50.846;4.326;2023-01-08T02:23:59;17.90;68.40
22714;DHT22;11524;50.846;4.326;2023-01-08T02:26:31;17.90;69.60
22714;DHT22;11524;50.846;4.326;2023-01-08T02:29:10;17.80;69.80
22714;DHT22;11524;50.846;4.326;2023-01-08T02:31:40;17.80;69.50
22714;DHT22;11524;50.846;4.326;2023-01-08T02:34:07;17.80;69.40
22714;DHT22;11524;50.846;4.326;2023-01-08T02:37:02;17.80;69.50
22714;DHT22;11524;50.846;4.326;2023-01-08T02:42:08;17.80;69.90
22714;DHT22;11524;50.846;4.326;2023-01-08T02:44:40;17.80;69.80
22714;DHT22;11524;50.846;4.326;2023-01-08T02:47:20;17.80;70.00
22714;DHT22;11524;50.846;4.326;2023-01-08T02:49:53;17.80;70.00
22714;DHT22;11524;50.846;4.326;2023-01-08T02:52:19;17.80;69.80
22714;DHT22;11524;50.846;4.326;2023-01-08T02:54:46;17.80;70.20
22714;DHT22;11524;50.846;4.326;2023-01-08T02:57:14;17.70;70.00
22714;DHT22;11524;50.846;4.326;2023-01-08T02:59:42;17.70;70.20
22714;DHT22;11524;50.846;4.326;2023-01-08T03:02:09;17.70;70.00
22714;DHT22;11524;50.846;4.326;2023-01-08T03:04:40;17.70;69.90
22714;DHT22;11524;50.846;4.326;2023-01-08T03:07:09;17.70;69.60
22714;DHT22;11524;50.846;4.326;2023-01-08T03:09:34;17.70;69.70
22714;DHT22;11524;50.846;4.326;2023-01-08T03:12:04;17.70;70.10
22714;DHT22;11524;50.846;4.326;2023-01-08T03:14:37;17.70;70.00
22714;DHT22;11524;50.846;4.326;2023-01-08T03:17:23;17.70;70.00
22714;DHT22;11524;50.846;4.326;2023-01-08T03:19:53;17.70;67.80
22714;DHT22;11524;50.846;4.326;2023-01-08T03:22:21;17.70;69.40
22714;DHT22;11524;50.846;4.326;2023-01-08T03:24:50;17.70;70.00
22714;DHT22;11524;50.846;4.326;2023-01-08T03:27:21;17.70;69.80
22714;DHT22;11524;50.846;4.326;2023-01-08T03:29:50;17.70;70.30
22714;DHT22;11524;50.846;4.326;2023-01-08T03:32:18;17.70;70.20
22714;DHT22;11524;50.846;4.326;2023-01-08T03:34:47;17.70;69.20
22714;DHT22;11524;50.846;4.326;2023-01-08T03:37:20;17.80;69.40
22714;DHT22;11524;50.846;4.326;2023-01-08T03:39:53;17.70;69.20
22714;DHT22;11524;50.846;4.326;2023-01-08T03:42:20;17.70;68.50
22714;DHT22;11524;50.846;4.326;2023-01-08T03:44:46;17.70;69.00
22714;DHT22;11524;50.846;4.326;2023-01-08T03:47:13;17.70;69.10
22714;DHT22;11524;50.846;4.326;2023-01-08T03:49:40;17.70;68.50
22714;DHT22;11524;50.846;4.326;2023-01-08T03:52:07;17.70;68.60
22714;DHT22;11524;50.846;4.326;2023-01-08T03:54:35;17.70;67.70
22714;DHT22;11524;50.846;4.326;2023-01-08T03:57:01;17.70;68.30
22714;DHT22;11524;50.846;4.326;2023-01-08T03:59:27;17.70;68.30
22714;DHT22;11524;50.846;4.326;2023-01-08T04:01:53;17.70;68.30
22714;DHT22;11524;50.846;4.326;2023-01-08T04:04:18;17.80;68.30
22714;DHT22;11524;50.846;4.326;2023-01-08T04:06:44;17.70;68.20
22714;DHT22;11524;50.846;4.326;2023-01-08T04:09:10;17.70;67.70
22714;DHT22;11524;50.846;4.326;2023-01-08T04:11:36;17.70;67.80
22714;DHT22;11524;50.846;4.326;2023-01-08T04:14:02;17.70;68.50
22714;DHT22;11524;50.846;4.326;2023-01-08T04:16:28;17.70;68.50
22714;DHT22;11524;50.846;4.326;2023-01-08T04:18:53;17.70;68.50
22714;DHT22;11524;50.846;4.326;2023-01-08T04:21:19;17.70;68.80
22714;DHT22;11524;50.846;4.326;2023-01-08T04:23:44;17.60;68.10
22714;DHT22;11524;50.846;4.326;2023-01-08T04:26:10;17.60;68.50
22714;DHT22;11524;50.846;4.326;2023-01-08T04:28:36;17.60;68.60
22714;DHT22;11524;50.846;4.326;2023-01-08T04:31:06;17.60;68.20
22714;DHT22;11524;50.846;4.326;2023-01-08T04:33:32;17.60;67.50
22714;DHT22;11524;50.846;4.326;2023-01-08T04:35:58;17.60;68.20
22714;DHT22;11524;50.846;4.326;2023-01-08T04:38:23;17.60;67.60
22714;DHT22;11524;50.846;4.326;2023-01-08T04:40:49;17.60;68.10
22714;DHT22;11524;50.846;4.326;2023-01-08T04:43:14;17.60;67.90
22714;DHT22;11524;50.846;4.326;2023-01-08T04:45:40;17.60;68.00
22714;DHT22;11524;50.846;4.326;2023-01-08T04:48:06;17.60;67.50
22714;DHT22;11524;50.846;4.326;2023-01-08T04:50:31;17.60;68.00
22714;DHT22;11524;50.846;4.326;2023-01-08T04:52:57;17.60;67.80
22714;DHT22;11524;50.846;4.326;2023-01-08T04:55:23;17.60;68.50
22714;DHT22;11524;50.846;4.326;2023-01-08T04:57:49;17.50;68.20
22714;DHT22;11524;50.846;4.326;2023-01-08T05:00:14;17.50;67.70
22714;DHT22;11524;50.846;4.326;2023-01-08T05:02:40;17.50;68.40
22714;DHT22;11524;50.846;4.326;2023-01-08T05:05:06;17.50;68.10
22714;DHT22;11524;50.846;4.326;2023-01-08T05:07:32;17.50;68.70
22714;DHT22;11524;50.846;4.326;2023-01-08T05:09:57;17.50;68.50
22714;DHT22;11524;50.846;4.326;2023-01-08T05:12:23;17.50;68.70
22714;DHT22;11524;50.846;4.326;2023-01-08T05:14:48;17.50;68.00
22714;DHT22;11524;50.846;4.326;2023-01-08T05:17:14;17.50;68.10
22714;DHT22;11524;50.846;4.326;2023-01-08T05:19:39;17.50;67.60
22714;DHT22;11524;50.846;4.326;2023-01-08T05:22:05;17.50;68.30
22714;DHT22;11524;50.846;4.326;2023-01-08T05:24:31;17.50;68.50
22714;DHT22;11524;50.846;4.326;2023-01-08T05:26:56;17.50;68.30
22714;DHT22;11524;50.846;4.326;2023-01-08T05:29:22;17.50;67.80
22714;DHT22;11524;50.846;4.326;2023-01-08T05:31:47;17.50;67.80
22714;DHT22;11524;50.846;4.326;2023-01-08T05:34:13;17.50;68.10
22714;DHT22;11524;50.846;4.326;2023-01-08T05:36:39;17.50;68.00
22714;DHT22;11524;50.846;4.326;2023-01-08T05:39:04;17.40;67.70
22714;DHT22;11524;50.846;4.326;2023-01-08T05:41:30;17.40;67.80
22714;DHT22;11524;50.846;4.326;2023-01-08T05:43:55;17.40;67.80
22714;DHT22;11524;50.846;4.326;2023-01-08T05:46:21;17.40;68.30
22714;DHT22;11524;50.846;4.326;2023-01-08T05:48:46;17.40;68.20
22714;DHT22;11524;50.846;4.326;2023-01-08T05:51:12;17.50;67.50
22714;DHT22;11524;50.846;4.326;2023-01-08T05:53:38;17.40;67.80
22714;DHT22;11524;50.846;4.326;2023-01-08T05:56:06;17.40;67.40
22714;DHT22;11524;50.846;4.326;2023-01-08T05:58:32;17.40;67.20
22714;DHT22;11524;50.846;4.326;2023-01-08T06:01:16;17.30;69.10
22714;DHT22;11524;50.846;4.326;2023-01-08T06:03:42;17.40;66.00
22714;DHT22;11524;50.846;4.326;2023-01-08T06:06:09;17.40;67.70
22714;DHT22;11524;50.846;4.326;2023-01-08T06:08:35;17.40;67.80
22714;DHT22;11524;50.846;4.326;2023-01-08T06:11:03;17.30;68.10
22714;DHT22;11524;50.846;4.326;2023-01-08T06:13:30;17.40;67.50
22714;DHT22;11524;50.846;4.326;2023-01-08T06:15:57;17.30;67.90
22714;DHT22;11524;50.846;4.326;2023-01-08T06:18:24;17.40;67.70
22714;DHT22;11524;50.846;4.326;2023-01-08T06:20:50;17.30;67.40
22714;DHT22;11524;50.846;4.326;2023-01-08T06:23:15;17.30;67.90
22714;DHT22;11524;50.846;4.326;2023-01-08T06:25:41;17.30;67.80
22714;DHT22;11524;50.846;4.326;2023-01-08T06:28:06;17.40;68.50
22714;DHT22;11524;50.846;4.326;2023-01-08T06:30:32;17.30;68.40
22714;DHT22;11524;50.846;4.326;2023-01-08T06:32:59;17.30;68.60
22714;DHT22;11524;50.846;4.326;2023-01-08T06:35:25;17.20;68.10
22714;DHT22;11524;50.846;4.326;2023-01-08T06:37:53;17.30;68.40
22714;DHT22;11524;50.846;4.326;2023-01-08T06:40:20;17.20;67.70
22714;DHT22;11524;50.846;4.326;2023-01-08T06:42:45;17.30;68.30
22714;DHT22;11524;50.846;4.326;2023-01-08T06:45:11;17.20;68.50
22714;DHT22;11524;50.846;4.326;2023-01-08T06:47:37;17.30;68.40
22714;DHT22;11524;50.846;4.326;2023-01-08T06:50:03;17.30;68.40
22714;DHT22;11524;50.846;4.326;2023-01-08T06:52:30;17.30;68.40
22714;DHT22;11524;50.846;4.326;2023-01-08T06:54:56;17.20;68.30
22714;DHT22;11524;50.846;4.326;2023-01-08T06:57:21;17.20;68.50
22714;DHT22;11524;50.846;4.326;2023-01-08T06:59:47;17.20;68.80
22714;DHT22;11524;50.846;4.326;2023-01-08T07:02:13;17.20;68.10
22714;DHT22;11524;50.846;4.326;2023-01-08T07:04:39;17.20;68.10
22714;DHT22;11524;50.846;4.326;2023-01-08T07:07:05;17.20;68.50
22714;DHT22;11524;50.846;4.326;2023-01-08T07:09:33;17.20;68.80
22714;DHT22;11524;50.846;4.326;2023-01-08T07:11:58;17.20;68.10
22714;DHT22;11524;50.846;4.326;2023-01-08T07:14:24;17.20;68.70
22714;DHT22;11524;50.846;4.326;2023-01-08T07:16:50;17.20;68.80
22714;DHT22;11524;50.846;4.326;2023-01-08T07:19:15;17.20;68.80
22714;DHT22;11524;50.846;4.326;2023-01-08T07:21:41;17.20;69.30
22714;DHT22;11524;50.846;4.326;2023-01-08T07:24:07;17.20;69.00
22714;DHT22;11524;50.846;4.326;2023-01-08T07:26:33;17.20;69.30
22714;DHT22;11524;50.846;4.326;2023-01-08T07:28:58;17.20;69.30
22714;DHT22;11524;50.846;4.326;2023-01-08T07:31:24;17.10;69.80
22714;DHT22;11524;50.846;4.326;2023-01-08T07:33:50;17.10;70.10
22714;DHT22;11524;50.846;4.326;2023-01-08T07:36:16;17.10;69.50
22714;DHT22;11524;50.846;4.326;2023-01-08T07:38:49;17.10;69.90
22714;DHT22;11524;50.846;4.326;2023-01-08T07:41:15;17.10;69.90
22714;DHT22;11524;50.846;4.326;2023-01-08T07:43:41;17.10;70.20
22714;DHT22;11524;50.846;4.326;2023-01-08T07:46:06;17.10;70.10
22714;DHT22;11524;50.846;4.326;2023-01-08T07:48:32;17.10;69.10
22714;DHT22;11524;50.846;4.326;2023-01-08T07:51:02;17.10;69.90
22714;DHT22;11524;50.846;4.326;2023-01-08T07:53:28;17.20;69.60
22714;DHT22;11524;50.846;4.326;2023-01-08T07:56:01;17.10;69.70
22714;DHT22;11524;50.846;4.326;2023-01-08T07:58:27;17.10;69.80
22714;DHT22;11524;50.846;4.326;2023-01-08T08:00:54;17.10;70.30
22714;DHT22;11524;50.846;4.326;2023-01-08T08:03:19;17.10;69.60
22714;DHT22;11524;50.846;4.326;2023-01-08T08:05:45;17.10;69.90
22714;DHT22;11524;50.846;4.326;2023-01-08T08:08:11;17.10;69.60
22714;DHT22;11524;50.846;4.326;2023-01-08T08:10:37;17.20;69.50
22714;DHT22;11524;50.846;4.326;2023-01-08T08:13:04;17.10;69.70
22714;DHT22;11524;50.846;4.326;2023-01-08T08:15:30;17.10;70.00
22714;DHT22;11524;50.846;4.326;2023-01-08T08:17:55;17.10;70.30
22714;DHT22;11524;50.846;4.326;2023-01-08T08:20:21;17.10;69.70
22714;DHT22;11524;50.846;4.326;2023-01-08T08:22:46;17.10;69.70
22714;DHT22;11524;50.846;4.326;2023-01-08T08:25:12;17.10;69.80
22714;DHT22;11524;50.846;4.326;2023-01-08T08:27:42;17.10;70.10
22714;DHT22;11524;50.846;4.326;2023-01-08T08:30:08;17.20;69.60
22714;DHT22;11524;50.846;4.326;2023-01-08T08:32:34;17.10;69.30
22714;DHT22;11524;50.846;4.326;2023-01-08T08:35:00;17.20;69.60
22714;DHT22;11524;50.846;4.326;2023-01-08T08:37:26;17.20;70.00
22714;DHT22;11524;50.846;4.326;2023-01-08T08:39:52;17.10;70.20
22714;DHT22;11524;50.846;4.326;2023-01-08T08:42:17;17.20;69.60
22714;DHT22;11524;50.846;4.326;2023-01-08T08:44:43;17.20;68.90
22714;DHT22;11524;50.846;4.326;2023-01-08T08:47:09;17.30;69.10
22714;DHT22;11524;50.846;4.326;2023-01-08T08:49:34;17.20;69.10
22714;DHT22;11524;50.846;4.326;2023-01-08T08:52:01;17.20;68.60
22714;DHT22;11524;50.846;4.326;2023-01-08T08:54:27;17.20;69.00
22714;DHT22;11524;50.846;4.326;2023-01-08T08:56:53;17.20;68.50
22714;DHT22;11524;50.846;4.326;2023-01-08T08:59:18;17.20;67.60
22714;DHT22;11524;50.846;4.326;2023-01-08T09:01:44;17.30;67.50
22714;DHT22;11524;50.846;4.326;2023-01-08T09:04:10;17.30;67.40
22714;DHT22;11524;50.846;4.326;2023-01-08T09:06:35;17.30;67.60
22714;DHT22;11524;50.846;4.326;2023-01-08T09:09:01;17.60;66.00
22714;DHT22;11524;50.846;4.326;2023-01-08T09:11:26;17.60;65.30
22714;DHT22;11524;50.846;4.326;2023-01-08T09:13:52;17.70;64.20
22714;DHT22;11524;50.846;4.326;2023-01-08T09:16:18;17.90;63.60
22714;DHT22;11524;50.846;4.326;2023-01-08T09:18:43;18.00;62.80
22714;DHT22;11524;50.846;4.326;2023-01-08T09:21:10;18.10;62.30
22714;DHT22;11524;50.846;4.326;2023-01-08T09:23:36;18.10;62.60
22714;DHT22;11524;50.846;4.326;2023-01-08T09:26:04;18.10;61.60
22714;DHT22;11524;50.846;4.326;2023-01-08T09:28:30;18.20;61.50
22714;DHT22;11524;50.846;4.326;2023-01-08T09:31:00;18.30;61.80
22714;DHT22;11524;50.846;4.326;2023-01-08T09:33:26;18.30;61.10
22714;DHT22;11524;50.846;4.326;2023-01-08T09:35:52;18.30;62.00
22714;DHT22;11524;50.846;4.326;2023-01-08T09:38:17;18.40;61.10
22714;DHT22;11524;50.846;4.326;2023-01-08T09:40:50;18.30;61.00
22714;DHT22;11524;50.846;4.326;2023-01-08T09:43:20;18.40;60.50
22714;DHT22;11524;50.846;4.326;2023-01-08T09:45:50;18.40;60.60
22714;DHT22;11524;50.846;4.326;2023-01-08T09:48:17;17.30;55.50
22714;DHT22;11524;50.846;4.326;2023-01-08T09:50:46;16.10;60.00
22714;DHT22;11524;50.846;4.326;2023-01-08T09:53:14;15.30;61.30
22714;DHT22;11524;50.846;4.326;2023-01-08T09:55:41;14.70;60.60
22714;DHT22;11524;50.846;4.326;2023-01-08T09:58:40;14.40;62.90
22714;DHT22;11524;50.846;4.326;2023-01-08T10:01:11;14.20;62.70
22714;DHT22;11524;50.846;4.326;2023-01-08T10:03:40;14.10;64.10
22714;DHT22;11524;50.846;4.326;2023-01-08T10:06:12;14.00;65.00
22714;DHT22;11524;50.846;4.326;2023-01-08T10:08:38;14.10;63.80
22714;DHT22;11524;50.846;4.326;2023-01-08T10:11:05;14.20;67.60
22714;DHT22;11524;50.846;4.326;2023-01-08T10:13:32;14.20;64.20
22714;DHT22;11524;50.846;4.326;2023-01-08T10:15:58;14.00;63.30
22714;DHT22;11524;50.846;4.326;2023-01-08T10:18:25;14.00;65.10
22714;DHT22;11524;50.846;4.326;2023-01-08T10:20:51;13.90;66.90
22714;DHT22;11524;50.846;4.326;2023-01-08T10:23:19;14.00;65.50
22714;DHT22;11524;50.846;4.326;2023-01-08T10:26:02;13.90;64.70
22714;DHT22;11524;50.846;4.326;2023-01-08T10:28:29;13.80;65.30
22714;DHT22;11524;50.846;4.326;2023-01-08T10:31:13;13.80;66.70
22714;DHT22;11524;50.846;4.326;2023-01-08T10:33:42;14.20;71.10
22714;DHT22;11524;50.846;4.326;2023-01-08T10:36:12;14.60;70.50
22714;DHT22;11524;50.846;4.326;2023-01-08T10:38:52;15.00;70.80
22714;DHT22;11524;50.846;4.326;2023-01-08T10:41:20;15.30;69.50
22714;DHT22;11524;50.846;4.326;2023-01-08T10:46:27;15.80;68.20
22714;DHT22;11524;50.846;4.326;2023-01-08T10:48:57;16.00;67.80
22714;DHT22;11524;50.846;4.326;2023-01-08T10:51:26;16.10;67.50
22714;DHT22;11524;50.846;4.326;2023-01-08T10:53:53;16.20;67.10
22714;DHT22;11524;50.846;4.326;2023-01-08T10:56:43;16.40;66.60
22714;DHT22;11524;50.846;4.326;2023-01-08T10:59:22;16.50;66.00
22714;DHT22;11524;50.846;4.326;2023-01-08T11:01:50;16.60;66.10
22714;DHT22;11524;50.846;4.326;2023-01-08T11:04:29;16.70;65.90
22714;DHT22;11524;50.846;4.326;2023-01-08T11:07:14;16.80;65.80
22714;DHT22;11524;50.846;4.326;2023-01-08T11:09:46;16.80;65.60
22714;DHT22;11524;50.846;4.326;2023-01-08T11:12:35;16.90;65.30
22714;DHT22;11524;50.846;4.326;2023-01-08T11:17:42;17.00;65.40
22714;DHT22;11524;50.846;4.326;2023-01-08T11:20:20;17.00;64.50
22714;DHT22;11524;50.846;4.326;2023-01-08T11:22:46;17.10;64.50
22714;DHT22;11524;50.846;4.326;2023-01-08T11:25:13;17.10;65.00
22714;DHT22;11524;50.846;4.326;2023-01-08T11:27:44;17.20;64.40
22714;DHT22;11524;50.846;4.326;2023-01-08T11:30:18;17.20;64.30
22714;DHT22;11524;50.846;4.326;2023-01-08T11:33:09;17.20;64.10
22714;DHT22;11524;50.846;4.326;2023-01-08T11:35:42;17.30;63.90
22714;DHT22;11524;50.846;4.326;2023-01-08T11:38:11;17.30;64.70
22714;DHT22;11524;50.846;4.326;2023-01-08T11:40:49;17.30;63.80
22714;DHT22;11524;50.846;4.326;2023-01-08T11:46:41;17.30;63.60
22714;DHT22;11524;50.846;4.326;2023-01-08T11:54:51;17.50;63.50
22714;DHT22;11524;50.846;4.326;2023-01-08T12:06:04;17.60;64.60
22714;DHT22;11524;50.846;4.326;2023-01-08T12:11:21;17.60;67.80
22714;DHT22;11524;50.846;4.326;2023-01-08T12:14:29;17.70;65.20
22714;DHT22;11524;50.846;4.326;2023-01-08T12:17:32;17.70;64.30
22714;DHT22;11524;50.846;4.326;2023-01-08T12:20:31;17.70;64.50
22714;DHT22;11524;50.846;4.326;2023-01-08T12:26:19;17.70;64.50
22714;DHT22;11524;50.846;4.326;2023-01-08T12:34:03;17.90;63.90
22714;DHT22;11524;50.846;4.326;2023-01-08T12:36:39;17.90;64.00
22714;DHT22;11524;50.846;4.326;2023-01-08T12:39:11;17.90;63.60
22714;DHT22;11524;50.846;4.326;2023-01-08T12:41:38;17.90;63.70
22714;DHT22;11524;50.846;4.326;2023-01-08T12:44:10;17.90;64.20
22714;DHT22;11524;50.846;4.326;2023-01-08T12:46:43;18.10;63.80
22714;DHT22;11524;50.846;4.326;2023-01-08T12:49:16;17.90;63.70
22714;DHT22;11524;50.846;4.326;2023-01-08T12:52:06;17.90;64.30
22714;DHT22;11524;50.846;4.326;2023-01-08T12:57:33;18.00;63.90
22714;DHT22;11524;50.846;4.326;2023-01-08T13:02:57;18.00;63.10
22714;DHT22;11524;50.846;4.326;2023-01-08T13:07:52;18.10;65.10
22714;DHT22;11524;50.846;4.326;2023-01-08T13:12:53;18.20;65.40
22714;DHT22;11524;50.846;4.326;2023-01-08T13:15:25;18.10;65.90
22714;DHT22;11524;50.846;4.326;2023-01-08T13:17:56;18.20;65.40
22714;DHT22;11524;50.846;4.326;2023-01-08T13:20:30;18.20;66.00
22714;DHT22;11524;50.846;4.326;2023-01-08T13:23:01;18.20;65.70
22714;DHT22;11524;50.846;4.326;2023-01-08T13:25:34;18.10;65.50
22714;DHT22;11524;50.846;4.326;2023-01-08T13:28:04;18.20;65.80
22714;DHT22;11524;50.846;4.326;2023-01-08T13:30:42;18.10;65.90
22714;DHT22;11524;50.846;4.326;2023-01-08T13:38:43;18.10;65.50
22714;DHT22;11524;50.846;4.326;2023-01-08T13:41:41;18.20;66.10
22714;DHT22;11524;50.846;4.326;2023-01-08T13:44:24;18.20;65.70
22714;DHT22;11524;50.846;4.326;2023-01-08T13:46:56;18.20;65.70
22714;DHT22;11524;50.846;4.326;2023-01-08T13:49:43;18.20;64.10
22714;DHT22;11524;50.846;4.326;2023-01-08T13:52:44;18.20;65.00
22714;DHT22;11524;50.846;4.326;2023-01-08T13:55:35;18.20;65.40
22714;DHT22;11524;50.846;4.326;2023-01-08T13:58:06;18.10;65.90
22714;DHT22;11524;50.846;4.326;2023-01-08T14:08:57;18.00;66.20
22714;DHT22;11524;50.846;4.326;2023-01-08T14:13:54;18.00;67.20
22714;DHT22;11524;50.846;4.326;2023-01-08T14:16:21;18.00;66.40
22714;DHT22;11524;50.846;4.326;2023-01-08T14:18:47;18.00;67.00
22714;DHT22;11524;50.846;4.326;2023-01-08T14:21:14;18.10;66.90
22714;DHT22;11524;50.846;4.326;2023-01-08T14:23:46;18.10;66.50
22714;DHT22;11524;50.846;4.326;2023-01-08T14:26:31;18.10;67.20
22714;DHT22;11524;50.846;4.326;2023-01-08T14:28:57;18.10;66.00
22714;DHT22;11524;50.846;4.326;2023-01-08T14:31:25;18.10;66.40
22714;DHT22;11524;50.846;4.326;2023-01-08T14:33:52;18.10;66.70
22714;DHT22;11524;50.846;4.326;2023-01-08T14:36:19;18.10;66.80
22714;DHT22;11524;50.846;4.326;2023-01-08T14:38:45;18.10;67.00
22714;DHT22;11524;50.846;4.326;2023-01-08T14:41:25;18.10;66.90
22714;DHT22;11524;50.846;4.326;2023-01-08T14:44:18;18.10;66.70
22714;DHT22;11524;50.846;4.326;2023-01-08T14:46:44;18.10;65.40
22714;DHT22;11524;50.846;4.326;2023-01-08T14:49:24;18.10;66.20
22714;DHT22;11524;50.846;4.326;2023-01-08T14:51:50;18.10;65.90
22714;DHT22;11524;50.846;4.326;2023-01-08T14:54:20;18.10;65.90
22714;DHT22;11524;50.846;4.326;2023-01-08T14:56:51;18.10;66.00
22714;DHT22;11524;50.846;4.326;2023-01-08T14:59:20;18.10;66.00
22714;DHT22;11524;50.846;4.326;2023-01-08T15:01:56;18.00;66.90
22714;DHT22;11524;50.846;4.326;2023-01-08T15:04:22;18.10;66.60
22714;DHT22;11524;50.846;4.326;2023-01-08T15:06:50;18.10;66.60
22714;DHT22;11524;50.846;4.326;2023-01-08T15:09:26;18.10;66.50
22714;DHT22;11524;50.846;4.326;2023-01-08T15:11:56;18.10;67.20
22714;DHT22;11524;50.846;4.326;2023-01-08T15:14:23;18.10;67.10
22714;DHT22;11524;50.846;4.326;2023-01-08T15:16:50;18.10;66.10
22714;DHT22;11524;50.846;4.326;2023-01-08T15:19:22;18.10;65.90
22714;DHT22;11524;50.846;4.326;2023-01-08T15:21:51;18.10;65.40
22714;DHT22;11524;50.846;4.326;2023-01-08T15:26:54;18.00;65.80
22714;DHT22;11524;50.846;4.326;2023-01-08T15:29:31;18.00;66.20
22714;DHT22;11524;50.846;4.326;2023-01-08T15:32:31;18.00;65.60
22714;DHT22;11524;50.846;4.326;2023-01-08T15:34:59;18.00;64.90
22714;DHT22;11524;50.846;4.326;2023-01-08T15:37:25;18.00;65.50
22714;DHT22;11524;50.846;4.326;2023-01-08T15:39:51;18.00;65.90
22714;DHT22;11524;50.846;4.326;2023-01-08T15:42:21;18.10;65.00
22714;DHT22;11524;50.846;4.326;2023-01-08T15:45:19;18.00;65.60
22714;DHT22;11524;50.846;4.326;2023-01-08T15:47:45;18.00;66.70
22714;DHT22;11524;50.846;4.326;2023-01-08T15:50:10;18.10;65.30
22714;DHT22;11524;50.846;4.326;2023-01-08T15:52:38;18.00;64.90
22714;DHT22;11524;50.846;4.326;2023-01-08T15:55:04;18.10;64.50
22714;DHT22;11524;50.846;4.326;2023-01-08T15:57:30;18.10;64.30
22714;DHT22;11524;50.846;4.326;2023-01-08T15:59:57;18.20;63.90
22714;DHT22;11524;50.846;4.326;2023-01-08T16:02:23;18.10;63.30
22714;DHT22;11524;50.846;4.326;2023-01-08T16:04:52;18.20;64.60
22714;DHT22;11524;50.846;4.326;2023-01-08T16:07:18;18.20;63.90
22714;DHT22;11524;50.846;4.326;2023-01-08T16:09:44;18.20;63.50
22714;DHT22;11524;50.846;4.326;2023-01-08T16:12:10;18.10;64.00
22714;DHT22;11524;50.846;4.326;2023-01-08T16:14:36;18.10;63.30
22714;DHT22;11524;50.846;4.326;2023-01-08T16:17:04;18.10;62.70
22714;DHT22;11524;50.846;4.326;2023-01-08T16:19:30;18.10;63.60
22714;DHT22;11524;50.846;4.326;2023-01-08T16:21:57;18.10;62.80
22714;DHT22;11524;50.846;4.326;2023-01-08T16:24:23;18.20;62.40
22714;DHT22;11524;50.846;4.326;2023-01-08T16:26:49;18.10;63.10
22714;DHT22;11524;50.846;4.326;2023-01-08T16:29:14;18.20;62.30
22714;DHT22;11524;50.846;4.326;2023-01-08T16:31:44;18.20;62.90
22714;DHT22;11524;50.846;4.326;2023-01-08T16:34:11;18.20;62.20
22714;DHT22;11524;50.846;4.326;2023-01-08T16:36:36;18.20;62.30
22714;DHT22;11524;50.846;4.326;2023-01-08T16:39:03;18.10;62.60
22714;DHT22;11524;50.846;4.326;2023-01-08T16:41:28;18.20;62.70
22714;DHT22;11524;50.846;4.326;2023-01-08T16:43:54;18.10;62.70
22714;DHT22;11524;50.846;4.326;2023-01-08T16:46:20;18.10;59.80
22714;DHT22;11524;50.846;4.326;2023-01-08T16:48:45;18.10;59.70
22714;DHT22;11524;50.846;4.326;2023-01-08T16:51:13;18.10;59.70
22714;DHT22;11524;50.846;4.326;2023-01-08T16:53:39;18.00;59.70